sensor_id;sensor_type;location;lat;lon;timestamp;pressure;altitude;pressure_sealevel;temperature;humidity
81107;BME280;70588;53.172;8.620;2023-08-01T00:00:11;99551.69;;;20.87;65.19
81107;BME280;70588;53.172;8.620;2023-08-01T00:02:37;99536.31;;;20.86;65.28
81107;BME280;70588;53.172;8.620;2023-08-01T00:05:04;99533.03;;;20.84;65.46
81107;BME280;70588;53.172;8.620;2023-08-01T00:07:29;99545.13;;;20.83;65.23
81107;BME280;70588;53.172;8.620;2023-08-01T00:09:55;99537.72;;;20.84;65.31
81107;BME280;70588;53.172;8.620;2023-08-01T00:12:20;99533.03;;;20.84;65.13
81107;BME280;70588;53.172;8.620;2023-08-01T00:14:46;99523.19;;;20.83;65.40
81107;BME280;70588;53.172;8.620;2023-08-01T00:17:11;99532.53;;;20.82;65.04
81107;BME280;70588;53.172;8.620;2023-08-01T00:19:37;99523.75;;;20.80;65.49
81107;BME280;70588;53.172;8.620;2023-08-01T00:22:02;99515.53;;;20.80;65.57
81107;BME280;70588;53.172;8.620;2023-08-01T00:24:28;99516.38;;;20.81;65.24
81107;BME280;70588;53.172;8.620;2023-08-01T00:26:53;99514.44;;;20.81;65.58
81107;BME280;70588;53.172;8.620;2023-08-01T00:29:21;99499.94;;;20.81;65.49
81107;BME280;70588;53.172;8.620;2023-08-01T00:31:46;99507.03;;;20.82;65.65
81107;BME280;70588;53.172;8.620;2023-08-01T00:34:11;99488.94;;;20.81;65.37
81107;BME280;70588;53.172;8.620;2023-08-01T00:36:37;99487.31;;;20.80;65.46
81107;BME280;70588;53.172;8.620;2023-08-01T00:39:02;99494.44;;;20.81;65.33
81107;BME280;70588;53.172;8.620;2023-08-01T00:41:27;99491.13;;;20.79;65.37
81107;BME280;70588;53.172;8.620;2023-08-01T00:43:53;99495.53;;;20.80;65.26
81107;BME280;70588;53.172;8.620;2023-08-01T00:46:18;99482.09;;;20.78;65.21
81107;BME280;70588;53.172;8.620;2023-08-01T00:48:44;99478.03;;;20.76;65.40
81107;BME280;70588;53.172;8.620;2023-08-01T00:51:09;99483.22;;;20.77;65.20
81107;BME280;70588;53.172;8.620;2023-08-01T00:53:37;99481.59;;;20.76;65.25
81107;BME280;70588;53.172;8.620;2023-08-01T00:56:03;99481.59;;;20.76;65.44
81107;BME280;70588;53.172;8.620;2023-08-01T00:58:29;99474.47;;;20.75;65.19
81107;BME280;70588;53.172;8.620;2023-08-01T01:00:54;99478.84;;;20.76;65.48
81107;BME280;70588;53.172;8.620;2023-08-01T01:03:22;99478.03;;;20.76;65.42
81107;BME280;70588;53.172;8.620;2023-08-01T01:05:53;99461.22;;;20.82;65.11
81107;BME280;70588;53.172;8.620;2023-08-01T01:08:20;99455.81;;;20.77;65.29
81107;BME280;70588;53.172;8.620;2023-08-01T01:10:46;99454.16;;;20.76;65.32
81107;BME280;70588;53.172;8.620;2023-08-01T01:13:12;99450.09;;;20.74;65.20
81107;BME280;70588;53.172;8.620;2023-08-01T01:15:37;99442.38;;;20.76;65.60
81107;BME280;70588;53.172;8.620;2023-08-01T01:18:02;99450.59;;;20.76;65.10
81107;BME280;70588;53.172;8.620;2023-08-01T01:20:35;99440.63;;;20.85;65.20
81107;BME280;70588;53.172;8.620;2023-08-01T01:23:03;99442.31;;;20.81;64.98
81107;BME280;70588;53.172;8.620;2023-08-01T01:25:29;99438.22;;;20.78;65.41
81107;BME280;70588;53.172;8.620;2023-08-01T01:27:56;99429.19;;;20.78;65.25
81107;BME280;70588;53.172;8.620;2023-08-01T01:30:22;99424.50;;;20.78;65.20
81107;BME280;70588;53.172;8.620;2023-08-01T01:32:48;99414.97;;;20.76;65.12
81107;BME280;70588;53.172;8.620;2023-08-01T01:35:14;99421.25;;;20.76;64.78
81107;BME280;70588;53.172;8.620;2023-08-01T01:37:39;99418.78;;;20.75;64.84
81107;BME280;70588;53.172;8.620;2023-08-01T01:40:05;99417.19;;;20.74;64.96
81107;BME280;70588;53.172;8.620;2023-08-01T01:42:31;99421.00;;;20.72;64.90
81107;BME280;70588;53.172;8.620;2023-08-01T01:44:56;99428.44;;;20.72;64.75
81107;BME280;70588;53.172;8.620;2023-08-01T01:47:21;99427.63;;;20.71;64.82
81107;BME280;70588;53.172;8.620;2023-08-01T01:49:47;99430.38;;;20.71;64.75
81107;BME280;70588;53.172;8.620;2023-08-01T01:52:12;99424.06;;;20.71;64.93
81107;BME280;70588;53.172;8.620;2023-08-01T01:54:37;99417.75;;;20.70;64.64
81107;BME280;70588;53.172;8.620;2023-08-01T01:57:03;99428.19;;;20.68;64.81
81107;BME280;70588;53.172;8.620;2023-08-01T01:59:28;99417.22;;;20.68;64.80
81107;BME280;70588;53.172;8.620;2023-08-01T02:01:54;99415.59;;;20.67;64.83
81107;BME280;70588;53.172;8.620;2023-08-01T02:04:20;99407.09;;;20.69;64.66
81107;BME280;70588;53.172;8.620;2023-08-01T02:06:45;99398.34;;;20.67;64.74
81107;BME280;70588;53.172;8.620;2023-08-01T02:09:10;99395.59;;;20.67;64.32
81107;BME280;70588;53.172;8.620;2023-08-01T02:11:36;99388.47;;;20.66;64.66
81107;BME280;70588;53.172;8.620;2023-08-01T02:14:01;99393.16;;;20.65;64.62
81107;BME280;70588;53.172;8.620;2023-08-01T02:16:28;99382.47;;;20.64;64.43
81107;BME280;70588;53.172;8.620;2023-08-01T02:18:53;99375.38;;;20.63;64.54
81107;BME280;70588;53.172;8.620;2023-08-01T02:21:19;99378.41;;;20.61;64.53
81107;BME280;70588;53.172;8.620;2023-08-01T02:23:44;99373.19;;;20.60;64.60
81107;BME280;70588;53.172;8.620;2023-08-01T02:26:09;99378.94;;;20.58;64.56
81107;BME280;70588;53.172;8.620;2023-08-01T02:28:35;99372.13;;;20.56;64.61
81107;BME280;70588;53.172;8.620;2023-08-01T02:31:00;99378.41;;;20.56;64.64
81107;BME280;70588;53.172;8.620;2023-08-01T02:33:25;99374.06;;;20.55;64.88
81107;BME280;70588;53.172;8.620;2023-08-01T02:35:51;99368.25;;;20.57;64.81
81107;BME280;70588;53.172;8.620;2023-08-01T02:38:16;99371.00;;;20.57;64.88
81107;BME280;70588;53.172;8.620;2023-08-01T02:40:41;99364.41;;;20.58;64.46
81107;BME280;70588;53.172;8.620;2023-08-01T02:43:07;99369.66;;;20.59;64.59
81107;BME280;70588;53.172;8.620;2023-08-01T02:45:32;99364.97;;;20.60;64.35
81107;BME280;70588;53.172;8.620;2023-08-01T02:47:57;99355.66;;;20.61;64.68
81107;BME280;70588;53.172;8.620;2023-08-01T02:50:23;99350.19;;;20.61;64.59
81107;BME280;70588;53.172;8.620;2023-08-01T02:52:48;99358.41;;;20.61;64.08
81107;BME280;70588;53.172;8.620;2023-08-01T02:55:13;99361.94;;;20.61;64.11
81107;BME280;70588;53.172;8.620;2023-08-01T02:57:39;99354.81;;;20.60;63.77
81107;BME280;70588;53.172;8.620;2023-08-01T03:00:05;99349.66;;;20.59;62.98
81107;BME280;70588;53.172;8.620;2023-08-01T03:02:31;99348.25;;;20.56;62.99
81107;BME280;70588;53.172;8.620;2023-08-01T03:04:57;99340.13;;;20.51;63.04
81107;BME280;70588;53.172;8.620;2023-08-01T03:07:22;99340.13;;;20.51;62.75
81107;BME280;70588;53.172;8.620;2023-08-01T03:09:47;99329.22;;;20.46;62.84
81107;BME280;70588;53.172;8.620;2023-08-01T03:12:13;99325.94;;;20.44;63.36
81107;BME280;70588;53.172;8.620;2023-08-01T03:14:38;99331.94;;;20.46;63.27
81107;BME280;70588;53.172;8.620;2023-08-01T03:17:04;99333.88;;;20.45;63.26
81107;BME280;70588;53.172;8.620;2023-08-01T03:19:29;99328.69;;;20.44;63.08
81107;BME280;70588;53.172;8.620;2023-08-01T03:21:55;99327.59;;;20.45;63.30
81107;BME280;70588;53.172;8.620;2023-08-01T03:24:20;99331.44;;;20.44;63.29
81107;BME280;70588;53.172;8.620;2023-08-01T03:26:46;99334.97;;;20.44;63.10
81107;BME280;70588;53.172;8.620;2023-08-01T03:29:11;99328.41;;;20.45;62.71
81107;BME280;70588;53.172;8.620;2023-08-01T03:31:37;99330.34;;;20.45;63.13
81107;BME280;70588;53.172;8.620;2023-08-01T03:34:02;99330.34;;;20.45;63.08
81107;BME280;70588;53.172;8.620;2023-08-01T03:36:28;99324.84;;;20.45;62.97
81107;BME280;70588;53.172;8.620;2023-08-01T03:38:53;99327.59;;;20.45;63.21
81107;BME280;70588;53.172;8.620;2023-08-01T03:41:19;99335.81;;;20.45;63.21
81107;BME280;70588;53.172;8.620;2023-08-01T03:43:44;99338.84;;;20.43;63.09
81107;BME280;70588;53.172;8.620;2023-08-01T03:46:09;99338.84;;;20.43;63.31
81107;BME280;70588;53.172;8.620;2023-08-01T03:48:35;99343.53;;;20.43;63.60
81107;BME280;70588;53.172;8.620;2023-08-01T03:51:00;99339.13;;;20.42;63.25
81107;BME280;70588;53.172;8.620;2023-08-01T03:53:28;99334.78;;;20.41;63.30
81107;BME280;70588;53.172;8.620;2023-08-01T03:55:53;99340.25;;;20.41;63.84
81107;BME280;70588;53.172;8.620;2023-08-01T03:58:19;99340.25;;;20.41;63.87
81107;BME280;70588;53.172;8.620;2023-08-01T04:00:44;99335.06;;;20.39;63.79
81107;BME280;70588;53.172;8.620;2023-08-01T04:03:10;99335.88;;;20.40;63.99
81107;BME280;70588;53.172;8.620;2023-08-01T04:05:36;99329.56;;;20.39;64.19
81107;BME280;70588;53.172;8.620;2023-08-01T04:08:01;99328.78;;;20.39;64.06
81107;BME280;70588;53.172;8.620;2023-08-01T04:10:26;99334.25;;;20.39;63.58
81107;BME280;70588;53.172;8.620;2023-08-01T04:12:52;99339.72;;;20.39;64.17
81107;BME280;70588;53.172;8.620;2023-08-01T04:15:17;99338.09;;;20.38;63.90
81107;BME280;70588;53.172;8.620;2023-08-01T04:17:43;99349.84;;;20.38;64.11
81107;BME280;70588;53.172;8.620;2023-08-01T04:20:08;99361.66;;;20.39;64.53
81107;BME280;70588;53.172;8.620;2023-08-01T04:22:34;99360.00;;;20.38;63.54
81107;BME280;70588;53.172;8.620;2023-08-01T04:25:00;99354.53;;;20.38;62.80
81107;BME280;70588;53.172;8.620;2023-08-01T04:27:26;99352.69;;;20.33;62.59
81107;BME280;70588;53.172;8.620;2023-08-01T04:29:51;99349.41;;;20.31;62.54
81107;BME280;70588;53.172;8.620;2023-08-01T04:32:17;99354.91;;;20.31;62.38
81107;BME280;70588;53.172;8.620;2023-08-01T04:34:43;99352.16;;;20.31;62.11
81107;BME280;70588;53.172;8.620;2023-08-01T04:37:08;99345.03;;;20.30;62.25
81107;BME280;70588;53.172;8.620;2023-08-01T04:39:35;99345.03;;;20.30;62.59
81107;BME280;70588;53.172;8.620;2023-08-01T04:42:01;99346.16;;;20.29;62.39
81107;BME280;70588;53.172;8.620;2023-08-01T04:44:26;99345.84;;;20.30;62.59
81107;BME280;70588;53.172;8.620;2023-08-01T04:46:52;99340.34;;;20.30;62.54
81107;BME280;70588;53.172;8.620;2023-08-01T04:49:17;99347.47;;;20.31;62.72
81107;BME280;70588;53.172;8.620;2023-08-01T04:51:42;99346.34;;;20.32;62.85
81107;BME280;70588;53.172;8.620;2023-08-01T04:54:08;99342.53;;;20.33;63.06
81107;BME280;70588;53.172;8.620;2023-08-01T04:56:33;99344.97;;;20.35;63.15
81107;BME280;70588;53.172;8.620;2023-08-01T04:58:58;99349.06;;;20.38;63.40
81107;BME280;70588;53.172;8.620;2023-08-01T05:01:24;99353.44;;;20.39;63.39
81107;BME280;70588;53.172;8.620;2023-08-01T05:03:49;99352.31;;;20.40;63.46
81107;BME280;70588;53.172;8.620;2023-08-01T05:06:14;99346.84;;;20.40;63.39
81107;BME280;70588;53.172;8.620;2023-08-01T05:08:40;99348.47;;;20.41;63.34
81107;BME280;70588;53.172;8.620;2023-08-01T05:11:05;99346.25;;;20.43;63.47
81107;BME280;70588;53.172;8.620;2023-08-01T05:13:30;99341.28;;;20.45;63.37
81107;BME280;70588;53.172;8.620;2023-08-01T05:15:56;99337.16;;;20.47;62.79
81107;BME280;70588;53.172;8.620;2023-08-01T05:18:21;99336.84;;;20.49;62.47
81107;BME280;70588;53.172;8.620;2023-08-01T05:20:47;99333.81;;;20.50;62.72
81107;BME280;70588;53.172;8.620;2023-08-01T05:23:12;99335.44;;;20.51;62.90
81107;BME280;70588;53.172;8.620;2023-08-01T05:25:37;99337.59;;;20.55;62.70
81107;BME280;70588;53.172;8.620;2023-08-01T05:28:03;99331.81;;;20.56;62.60
81107;BME280;70588;53.172;8.620;2023-08-01T05:30:28;99335.94;;;20.59;62.57
81107;BME280;70588;53.172;8.620;2023-08-01T05:32:54;99341.63;;;20.62;62.43
81107;BME280;70588;53.172;8.620;2023-08-01T05:35:19;99334.16;;;20.68;62.79
81107;BME280;70588;53.172;8.620;2023-08-01T05:37:46;99338.75;;;20.72;62.35
81107;BME280;70588;53.172;8.620;2023-08-01T05:40:11;99330.97;;;20.80;62.01
81107;BME280;70588;53.172;8.620;2023-08-01T05:42:37;99331.88;;;20.94;61.67
81107;BME280;70588;53.172;8.620;2023-08-01T05:45:02;99338.75;;;21.10;61.35
81107;BME280;70588;53.172;8.620;2023-08-01T05:47:29;99334.72;;;21.22;61.22
81107;BME280;70588;53.172;8.620;2023-08-01T05:49:54;99329.31;;;21.36;60.90
81107;BME280;70588;53.172;8.620;2023-08-01T05:52:20;99337.91;;;21.48;60.65
81107;BME280;70588;53.172;8.620;2023-08-01T05:54:45;99339.88;;;21.61;60.78
81107;BME280;70588;53.172;8.620;2023-08-01T05:57:10;99340.09;;;21.79;60.29
81107;BME280;70588;53.172;8.620;2023-08-01T05:59:36;99339.03;;;21.94;60.05
81107;BME280;70588;53.172;8.620;2023-08-01T06:02:02;99351.44;;;22.05;59.51
81107;BME280;70588;53.172;8.620;2023-08-01T06:04:28;99356.03;;;22.09;59.25
81107;BME280;70588;53.172;8.620;2023-08-01T06:06:53;99348.59;;;22.10;59.23
81107;BME280;70588;53.172;8.620;2023-08-01T06:09:19;99349.19;;;22.07;59.01
81107;BME280;70588;53.172;8.620;2023-08-01T06:11:44;99348.69;;;22.05;58.69
81107;BME280;70588;53.172;8.620;2023-08-01T06:14:10;99357.03;;;22.00;58.99
81107;BME280;70588;53.172;8.620;2023-08-01T06:16:35;99362.63;;;21.95;59.26
81107;BME280;70588;53.172;8.620;2023-08-01T06:19:00;99360.50;;;21.91;59.19
81107;BME280;70588;53.172;8.620;2023-08-01T06:21:26;99366.88;;;21.87;59.32
81107;BME280;70588;53.172;8.620;2023-08-01T06:23:52;99360.69;;;21.81;59.27
81107;BME280;70588;53.172;8.620;2023-08-01T06:26:17;99360.75;;;21.76;59.67
81107;BME280;70588;53.172;8.620;2023-08-01T06:28:43;99362.19;;;21.74;59.58
81107;BME280;70588;53.172;8.620;2023-08-01T06:31:08;99361.97;;;21.70;59.93
81107;BME280;70588;53.172;8.620;2023-08-01T06:33:33;99354.34;;;21.67;59.94
81107;BME280;70588;53.172;8.620;2023-08-01T06:35:59;99359.28;;;21.65;59.96
81107;BME280;70588;53.172;8.620;2023-08-01T06:38:24;99354.94;;;21.64;60.42
81107;BME280;70588;53.172;8.620;2023-08-01T06:40:50;99357.38;;;21.65;60.13
81107;BME280;70588;53.172;8.620;2023-08-01T06:43:15;99352.69;;;21.66;60.22
81107;BME280;70588;53.172;8.620;2023-08-01T06:45:40;99356.59;;;21.79;60.48
81107;BME280;70588;53.172;8.620;2023-08-01T06:48:06;99356.22;;;21.85;60.40
81107;BME280;70588;53.172;8.620;2023-08-01T06:50:31;99364.03;;;21.92;59.87
81107;BME280;70588;53.172;8.620;2023-08-01T06:52:57;99371.38;;;21.97;60.18
81107;BME280;70588;53.172;8.620;2023-08-01T06:55:22;99366.09;;;22.00;60.16
81107;BME280;70588;53.172;8.620;2023-08-01T06:57:47;99363.84;;;22.02;59.63
81107;BME280;70588;53.172;8.620;2023-08-01T07:00:13;99375.13;;;22.01;59.27
81107;BME280;70588;53.172;8.620;2023-08-01T07:02:38;99373.00;;;21.98;58.89
81107;BME280;70588;53.172;8.620;2023-08-01T07:05:04;99376.34;;;21.95;58.53
81107;BME280;70588;53.172;8.620;2023-08-01T07:07:30;99374.00;;;21.88;58.69
81107;BME280;70588;53.172;8.620;2023-08-01T07:09:55;99376.84;;;21.83;58.63
81107;BME280;70588;53.172;8.620;2023-08-01T07:12:20;99378.88;;;21.77;59.19
81107;BME280;70588;53.172;8.620;2023-08-01T07:14:46;99382.13;;;21.79;59.20
81107;BME280;70588;53.172;8.620;2023-08-01T07:17:11;99387.31;;;21.81;59.22
81107;BME280;70588;53.172;8.620;2023-08-01T07:19:36;99390.56;;;21.83;59.37
81107;BME280;70588;53.172;8.620;2023-08-01T07:22:02;99397.09;;;21.87;59.52
81107;BME280;70588;53.172;8.620;2023-08-01T07:24:27;99397.31;;;21.90;59.13
81107;BME280;70588;53.172;8.620;2023-08-01T07:26:53;99392.84;;;21.95;59.02
81107;BME280;70588;53.172;8.620;2023-08-01T07:29:18;99391.94;;;21.99;58.99
81107;BME280;70588;53.172;8.620;2023-08-01T07:31:44;99391.03;;;22.04;58.58
81107;BME280;70588;53.172;8.620;2023-08-01T07:34:09;99387.97;;;22.05;58.37
81107;BME280;70588;53.172;8.620;2023-08-01T07:36:34;99390.72;;;22.05;58.10
81107;BME280;70588;53.172;8.620;2023-08-01T07:39:00;99402.53;;;22.06;58.12
81107;BME280;70588;53.172;8.620;2023-08-01T07:41:25;99393.06;;;22.12;57.90
81107;BME280;70588;53.172;8.620;2023-08-01T07:43:51;99401.41;;;22.21;58.14
81107;BME280;70588;53.172;8.620;2023-08-01T07:46:16;99400.44;;;22.30;58.99
81107;BME280;70588;53.172;8.620;2023-08-01T07:48:41;99394.75;;;22.41;58.15
81107;BME280;70588;53.172;8.620;2023-08-01T07:51:07;99390.66;;;22.52;57.77
81107;BME280;70588;53.172;8.620;2023-08-01T07:53:34;99387.72;;;22.62;56.90
81107;BME280;70588;53.172;8.620;2023-08-01T07:55:59;99386.69;;;22.72;57.19
81107;BME280;70588;53.172;8.620;2023-08-01T07:58:27;99391.16;;;22.82;56.89
81107;BME280;70588;53.172;8.620;2023-08-01T08:00:53;99399.47;;;22.90;56.03
81107;BME280;70588;53.172;8.620;2023-08-01T08:03:18;99389.19;;;22.96;55.64
81107;BME280;70588;53.172;8.620;2023-08-01T08:05:44;99396.00;;;22.99;55.75
81107;BME280;70588;53.172;8.620;2023-08-01T08:08:10;99396.22;;;23.02;55.36
81107;BME280;70588;53.172;8.620;2023-08-01T08:10:35;99395.94;;;23.04;55.64
81107;BME280;70588;53.172;8.620;2023-08-01T08:13:00;99395.94;;;23.04;54.91
81107;BME280;70588;53.172;8.620;2023-08-01T08:15:26;99396.50;;;23.01;55.02
81107;BME280;70588;53.172;8.620;2023-08-01T08:17:52;99405.38;;;22.98;54.76
81107;BME280;70588;53.172;8.620;2023-08-01T08:20:17;99399.06;;;22.97;54.98
81107;BME280;70588;53.172;8.620;2023-08-01T08:22:43;99401.31;;;22.95;55.13
81107;BME280;70588;53.172;8.620;2023-08-01T08:25:08;99405.19;;;22.94;54.79
81107;BME280;70588;53.172;8.620;2023-08-01T08:27:33;99400.78;;;22.93;55.18
81107;BME280;70588;53.172;8.620;2023-08-01T08:29:59;99402.75;;;22.93;54.84
81107;BME280;70588;53.172;8.620;2023-08-01T08:32:25;99401.63;;;22.94;54.86
81107;BME280;70588;53.172;8.620;2023-08-01T08:34:50;99403.94;;;23.00;55.14
81107;BME280;70588;53.172;8.620;2023-08-01T08:37:15;99401.94;;;23.06;54.45
81107;BME280;70588;53.172;8.620;2023-08-01T08:39:41;99400.50;;;23.08;54.38
81107;BME280;70588;53.172;8.620;2023-08-01T08:42:06;99399.44;;;23.18;54.23
81107;BME280;70588;53.172;8.620;2023-08-01T08:44:35;99401.16;;;23.28;53.75
81107;BME280;70588;53.172;8.620;2023-08-01T08:47:08;99401.84;;;23.34;53.89
81107;BME280;70588;53.172;8.620;2023-08-01T08:49:36;99401.72;;;23.39;53.68
81107;BME280;70588;53.172;8.620;2023-08-01T08:52:02;99403.72;;;23.47;53.40
81107;BME280;70588;53.172;8.620;2023-08-01T08:54:29;99403.59;;;23.52;52.41
81107;BME280;70588;53.172;8.620;2023-08-01T08:56:55;99404.09;;;23.54;51.71
81107;BME280;70588;53.172;8.620;2023-08-01T08:59:21;99391.16;;;23.55;51.20
81107;BME280;70588;53.172;8.620;2023-08-01T09:01:46;99407.66;;;23.55;50.89
81107;BME280;70588;53.172;8.620;2023-08-01T09:04:12;99392.28;;;23.54;50.78
81107;BME280;70588;53.172;8.620;2023-08-01T09:06:44;99390.84;;;23.56;50.92
81107;BME280;70588;53.172;8.620;2023-08-01T09:09:12;99389.53;;;23.54;50.42
81107;BME280;70588;53.172;8.620;2023-08-01T09:14:11;99394.41;;;23.57;50.64
81107;BME280;70588;53.172;8.620;2023-08-01T09:16:37;99396.19;;;23.61;50.79
81107;BME280;70588;53.172;8.620;2023-08-01T09:19:03;99392.53;;;23.66;50.77
81107;BME280;70588;53.172;8.620;2023-08-01T09:21:34;99385.94;;;23.76;49.99
81107;BME280;70588;53.172;8.620;2023-08-01T09:26:42;99381.47;;;23.80;49.04
81107;BME280;70588;53.172;8.620;2023-08-01T09:29:08;99384.06;;;23.85;49.47
81107;BME280;70588;53.172;8.620;2023-08-01T09:31:36;99382.81;;;23.91;48.87
81107;BME280;70588;53.172;8.620;2023-08-01T09:34:03;99389.81;;;23.97;48.94
81107;BME280;70588;53.172;8.620;2023-08-01T09:36:33;99387.72;;;24.03;48.38
81107;BME280;70588;53.172;8.620;2023-08-01T09:39:03;99390.22;;;24.13;48.44
81107;BME280;70588;53.172;8.620;2023-08-01T09:41:30;99378.69;;;24.11;48.49
81107;BME280;70588;53.172;8.620;2023-08-01T09:43:56;99385.84;;;24.12;49.38
81107;BME280;70588;53.172;8.620;2023-08-01T09:46:21;99396.56;;;24.14;49.27
81107;BME280;70588;53.172;8.620;2023-08-01T09:48:47;99392.47;;;24.11;48.46
81107;BME280;70588;53.172;8.620;2023-08-01T09:51:17;99391.84;;;24.14;48.72
81107;BME280;70588;53.172;8.620;2023-08-01T09:56:14;99386.66;;;24.13;48.74
81107;BME280;70588;53.172;8.620;2023-08-01T09:58:42;99380.03;;;24.14;48.05
81107;BME280;70588;53.172;8.620;2023-08-01T10:01:08;99392.66;;;24.15;48.80
81107;BME280;70588;53.172;8.620;2023-08-01T10:03:34;99392.84;;;24.18;48.44
81107;BME280;70588;53.172;8.620;2023-08-01T10:06:00;99371.13;;;24.25;48.42
81107;BME280;70588;53.172;8.620;2023-08-01T10:08:26;99379.56;;;24.29;48.23
81107;BME280;70588;53.172;8.620;2023-08-01T10:10:53;99377.31;;;24.31;48.07
81107;BME280;70588;53.172;8.620;2023-08-01T10:13:23;99387.22;;;24.32;48.05
81107;BME280;70588;53.172;8.620;2023-08-01T10:15:50;99383.66;;;24.32;48.65
81107;BME280;70588;53.172;8.620;2023-08-01T10:18:16;99375.03;;;24.33;48.17
81107;BME280;70588;53.172;8.620;2023-08-01T10:20:43;99379.13;;;24.36;48.58
81107;BME280;70588;53.172;8.620;2023-08-01T10:23:09;99367.44;;;24.39;49.49
81107;BME280;70588;53.172;8.620;2023-08-01T10:25:36;99374.59;;;24.40;50.34
81107;BME280;70588;53.172;8.620;2023-08-01T10:28:04;99393.41;;;24.38;50.36
81107;BME280;70588;53.172;8.620;2023-08-01T10:30:30;99378.63;;;24.34;50.26
81107;BME280;70588;53.172;8.620;2023-08-01T10:32:57;99391.75;;;24.28;49.15
81107;BME280;70588;53.172;8.620;2023-08-01T10:35:36;99389.19;;;24.32;49.09
81107;BME280;70588;53.172;8.620;2023-08-01T10:38:06;99397.22;;;24.19;48.56
81107;BME280;70588;53.172;8.620;2023-08-01T10:40:36;99394.44;;;24.11;48.42
81107;BME280;70588;53.172;8.620;2023-08-01T10:43:02;99397.47;;;24.00;48.94
81107;BME280;70588;53.172;8.620;2023-08-01T10:45:28;99400.69;;;23.94;49.37
81107;BME280;70588;53.172;8.620;2023-08-01T10:48:06;99412.34;;;23.99;49.33
81107;BME280;70588;53.172;8.620;2023-08-01T10:50:32;99403.06;;;23.86;50.34
81107;BME280;70588;53.172;8.620;2023-08-01T10:53:08;99403.44;;;23.94;50.07
81107;BME280;70588;53.172;8.620;2023-08-01T10:55:45;99397.41;;;23.92;49.52
81107;BME280;70588;53.172;8.620;2023-08-01T10:58:10;99393.78;;;23.82;49.93
81107;BME280;70588;53.172;8.620;2023-08-01T11:00:36;99393.78;;;23.82;49.53
81107;BME280;70588;53.172;8.620;2023-08-01T11:03:02;99399.81;;;23.84;49.77
81107;BME280;70588;53.172;8.620;2023-08-01T11:05:28;99403.56;;;23.88;49.98
81107;BME280;70588;53.172;8.620;2023-08-01T11:07:59;99401.66;;;23.98;49.75
81107;BME280;70588;53.172;8.620;2023-08-01T11:12:54;99395.19;;;24.02;49.05
81107;BME280;70588;53.172;8.620;2023-08-01T11:15:20;99401.69;;;24.06;48.13
81107;BME280;70588;53.172;8.620;2023-08-01T11:17:50;99406.13;;;24.16;48.38
81107;BME280;70588;53.172;8.620;2023-08-01T11:20:17;99406.94;;;24.17;47.88
81107;BME280;70588;53.172;8.620;2023-08-01T11:22:59;99404.09;;;24.31;47.76
81107;BME280;70588;53.172;8.620;2023-08-01T11:25:42;99403.72;;;24.23;47.39
81107;BME280;70588;53.172;8.620;2023-08-01T11:28:10;99398.03;;;24.20;47.47
81107;BME280;70588;53.172;8.620;2023-08-01T11:30:36;99412.75;;;24.15;46.67
81107;BME280;70588;53.172;8.620;2023-08-01T11:33:12;99395.72;;;24.13;47.02
81107;BME280;70588;53.172;8.620;2023-08-01T11:35:38;99404.50;;;24.15;47.55
81107;BME280;70588;53.172;8.620;2023-08-01T11:38:04;99406.31;;;24.20;47.43
81107;BME280;70588;53.172;8.620;2023-08-01T11:40:31;99417.84;;;24.22;47.02
81107;BME280;70588;53.172;8.620;2023-08-01T11:42:57;99415.59;;;24.24;46.70
81107;BME280;70588;53.172;8.620;2023-08-01T11:45:23;99406.66;;;24.27;47.01
81107;BME280;70588;53.172;8.620;2023-08-01T11:47:49;99420.63;;;24.31;47.10
81107;BME280;70588;53.172;8.620;2023-08-01T11:50:23;99413.53;;;24.38;46.78
81107;BME280;70588;53.172;8.620;2023-08-01T11:52:49;99425.53;;;24.34;47.03
81107;BME280;70588;53.172;8.620;2023-08-01T11:55:20;99419.53;;;24.40;46.78
81107;BME280;70588;53.172;8.620;2023-08-01T11:57:56;99434.63;;;24.43;48.69
81107;BME280;70588;53.172;8.620;2023-08-01T12:00:24;99441.72;;;24.35;49.51
81107;BME280;70588;53.172;8.620;2023-08-01T12:02:49;99449.34;;;24.29;49.47
81107;BME280;70588;53.172;8.620;2023-08-01T12:05:23;99470.75;;;24.33;50.29
81107;BME280;70588;53.172;8.620;2023-08-01T12:07:48;99461.88;;;24.13;51.01
81107;BME280;70588;53.172;8.620;2023-08-01T12:10:14;99457.13;;;24.05;51.17
81107;BME280;70588;53.172;8.620;2023-08-01T12:12:44;99468.47;;;24.03;51.48
81107;BME280;70588;53.172;8.620;2023-08-01T12:15:11;99460.63;;;23.88;51.95
81107;BME280;70588;53.172;8.620;2023-08-01T12:17:36;99467.03;;;23.83;52.12
81107;BME280;70588;53.172;8.620;2023-08-01T12:20:02;99468.81;;;23.79;52.16
81107;BME280;70588;53.172;8.620;2023-08-01T12:22:27;99458.91;;;23.78;52.81
81107;BME280;70588;53.172;8.620;2023-08-01T12:24:53;99470.22;;;23.77;53.39
81107;BME280;70588;53.172;8.620;2023-08-01T12:27:18;99468.91;;;23.74;52.72
81107;BME280;70588;53.172;8.620;2023-08-01T12:29:43;99471.47;;;23.70;53.41
81107;BME280;70588;53.172;8.620;2023-08-01T12:32:09;99478.13;;;23.69;54.02
81107;BME280;70588;53.172;8.620;2023-08-01T12:34:34;99478.44;;;23.68;54.89
81107;BME280;70588;53.172;8.620;2023-08-01T12:37:00;99482.63;;;23.65;53.30
81107;BME280;70588;53.172;8.620;2023-08-01T12:39:25;99489.56;;;23.63;53.40
81107;BME280;70588;53.172;8.620;2023-08-01T12:41:52;99495.19;;;23.58;53.57
81107;BME280;70588;53.172;8.620;2023-08-01T12:44:18;99495.81;;;23.55;54.14
81107;BME280;70588;53.172;8.620;2023-08-01T12:46:43;99500.81;;;23.53;53.77
81107;BME280;70588;53.172;8.620;2023-08-01T12:49:09;99523.16;;;23.51;54.24
81107;BME280;70588;53.172;8.620;2023-08-01T12:51:34;99514.38;;;23.49;53.84
81107;BME280;70588;53.172;8.620;2023-08-01T12:53:59;99513.19;;;23.41;54.19
81107;BME280;70588;53.172;8.620;2023-08-01T12:56:25;99519.94;;;23.35;54.47
81107;BME280;70588;53.172;8.620;2023-08-01T12:58:50;99525.66;;;23.25;54.32
81107;BME280;70588;53.172;8.620;2023-08-01T13:01:16;99515.88;;;23.19;54.32
81107;BME280;70588;53.172;8.620;2023-08-01T13:03:41;99517.91;;;23.13;55.30